sensor_id;sensor_type;location;lat;lon;timestamp;P1;durP1;ratioP1;P2;durP2;ratioP2
9942;SDS011;5010;45.080;7.634;2023-06-04T00:02:23;9.07;;;8.57;;
9942;SDS011;5010;45.080;7.634;2023-06-04T00:04:50;9.40;;;7.90;;
9942;SDS011;5010;45.080;7.634;2023-06-04T00:07:18;9.85;;;7.15;;
9942;SDS011;5010;45.080;7.634;2023-06-04T00:09:45;8.18;;;6.40;;
9942;SDS011;5010;45.080;7.634;2023-06-04T00:12:14;7.75;;;7.40;;
9942;SDS011;5010;45.080;7.634;2023-06-04T00:14:41;7.80;;;6.35;;
9942;SDS011;5010;45.080;7.634;2023-06-04T00:17:09;7.80;;;7.13;;
9942;SDS011;5010;45.080;7.634;2023-06-04T00:19:37;7.25;;;6.85;;
9942;SDS011;5010;45.080;7.634;2023-06-04T00:22:05;8.07;;;6.70;;
9942;SDS011;5010;45.080;7.634;2023-06-04T00:24:32;8.88;;;6.53;;
9942;SDS011;5010;45.080;7.634;2023-06-04T00:26:59;8.88;;;7.45;;
9942;SDS011;5010;45.080;7.634;2023-06-04T00:29:28;8.30;;;6.32;;
9942;SDS011;5010;45.080;7.634;2023-06-04T00:31:55;7.15;;;6.75;;
9942;SDS011;5010;45.080;7.634;2023-06-04T00:34:22;8.63;;;7.60;;
9942;SDS011;5010;45.080;7.634;2023-06-04T00:36:50;9.00;;;8.50;;
9942;SDS011;5010;45.080;7.634;2023-06-04T00:39:17;8.70;;;6.47;;
9942;SDS011;5010;45.080;7.634;2023-06-04T00:41:44;7.82;;;7.05;;
9942;SDS011;5010;45.080;7.634;2023-06-04T00:44:11;9.02;;;7.80;;
9942;SDS011;5010;45.080;7.634;2023-06-04T00:46:40;7.65;;;6.38;;
9942;SDS011;5010;45.080;7.634;2023-06-04T00:49:10;11.52;;;7.28;;
9942;SDS011;5010;45.080;7.634;2023-06-04T00:51:38;7.75;;;7.35;;
9942;SDS011;5010;45.080;7.634;2023-06-04T00:54:06;7.70;;;7.30;;
9942;SDS011;5010;45.080;7.634;2023-06-04T00:56:34;8.48;;;6.97;;
9942;SDS011;5010;45.080;7.634;2023-06-04T00:59:02;7.97;;;7.55;;
9942;SDS011;5010;45.080;7.634;2023-06-04T01:01:31;8.23;;;7.63;;
9942;SDS011;5010;45.080;7.634;2023-06-04T01:04:03;9.68;;;9.18;;
9942;SDS011;5010;45.080;7.634;2023-06-04T01:06:34;8.43;;;7.35;;
9942;SDS011;5010;45.080;7.634;2023-06-04T01:09:02;7.72;;;7.38;;
9942;SDS011;5010;45.080;7.634;2023-06-04T01:11:31;7.50;;;6.80;;
9942;SDS011;5010;45.080;7.634;2023-06-04T01:13:59;9.57;;;7.10;;
9942;SDS011;5010;45.080;7.634;2023-06-04T01:16:26;7.43;;;6.78;;
9942;SDS011;5010;45.080;7.634;2023-06-04T01:18:56;6.97;;;6.57;;
9942;SDS011;5010;45.080;7.634;2023-06-04T01:21:25;7.03;;;6.03;;
9942;SDS011;5010;45.080;7.634;2023-06-04T01:23:53;8.88;;;7.07;;
9942;SDS011;5010;45.080;7.634;2023-06-04T01:26:24;7.65;;;6.45;;
9942;SDS011;5010;45.080;7.634;2023-06-04T01:28:52;7.72;;;7.32;;
9942;SDS011;5010;45.080;7.634;2023-06-04T01:31:20;7.60;;;7.20;;
9942;SDS011;5010;45.080;7.634;2023-06-04T01:33:50;7.07;;;6.68;;
9942;SDS011;5010;45.080;7.634;2023-06-04T01:36:18;7.25;;;6.53;;
9942;SDS011;5010;45.080;7.634;2023-06-04T01:38:46;9.82;;;9.32;;
9942;SDS011;5010;45.080;7.634;2023-06-04T01:41:13;7.82;;;7.50;;
9942;SDS011;5010;45.080;7.634;2023-06-04T01:43:41;8.70;;;7.47;;
9942;SDS011;5010;45.080;7.634;2023-06-04T01:46:08;8.50;;;7.95;;
9942;SDS011;5010;45.080;7.634;2023-06-04T01:48:35;9.63;;;9.13;;
9942;SDS011;5010;45.080;7.634;2023-06-04T01:51:04;7.63;;;7.22;;
9942;SDS011;5010;45.080;7.634;2023-06-04T01:53:31;9.13;;;8.55;;
9942;SDS011;5010;45.080;7.634;2023-06-04T01:56:00;7.50;;;7.10;;
9942;SDS011;5010;45.080;7.634;2023-06-04T01:58:27;6.55;;;6.15;;
9942;SDS011;5010;45.080;7.634;2023-06-04T02:00:57;7.85;;;6.75;;
9942;SDS011;5010;45.080;7.634;2023-06-04T02:03:28;9.27;;;6.80;;
9942;SDS011;5010;45.080;7.634;2023-06-04T02:06:02;7.20;;;6.10;;
9942;SDS011;5010;45.080;7.634;2023-06-04T02:08:29;6.55;;;6.15;;
9942;SDS011;5010;45.080;7.634;2023-06-04T02:10:59;7.97;;;6.90;;
9942;SDS011;5010;45.080;7.634;2023-06-04T02:13:27;8.75;;;7.72;;
9942;SDS011;5010;45.080;7.634;2023-06-04T02:15:54;9.70;;;9.20;;
9942;SDS011;5010;45.080;7.634;2023-06-04T02:18:21;6.93;;;6.53;;
9942;SDS011;5010;45.080;7.634;2023-06-04T02:20:50;7.63;;;7.25;;
9942;SDS011;5010;45.080;7.634;2023-06-04T02:23:17;6.95;;;6.60;;
9942;SDS011;5010;45.080;7.634;2023-06-04T02:25:45;7.25;;;6.30;;
9942;SDS011;5010;45.080;7.634;2023-06-04T02:28:16;7.53;;;5.55;;
9942;SDS011;5010;45.080;7.634;2023-06-04T02:30:44;6.88;;;6.45;;
9942;SDS011;5010;45.080;7.634;2023-06-04T02:33:11;6.63;;;5.53;;
9942;SDS011;5010;45.080;7.634;2023-06-04T02:35:38;6.72;;;6.20;;
9942;SDS011;5010;45.080;7.634;2023-06-04T02:38:06;7.55;;;7.22;;
9942;SDS011;5010;45.080;7.634;2023-06-04T02:40:33;8.35;;;7.10;;
9942;SDS011;5010;45.080;7.634;2023-06-04T02:43:00;8.27;;;7.90;;
9942;SDS011;5010;45.080;7.634;2023-06-04T02:45:29;7.05;;;6.65;;
9942;SDS011;5010;45.080;7.634;2023-06-04T02:47:56;7.50;;;6.47;;
9942;SDS011;5010;45.080;7.634;2023-06-04T02:50:24;7.30;;;6.90;;
9942;SDS011;5010;45.080;7.634;2023-06-04T02:52:51;7.10;;;6.70;;
9942;SDS011;5010;45.080;7.634;2023-06-04T02:55:18;6.85;;;6.43;;
9942;SDS011;5010;45.080;7.634;2023-06-04T02:57:45;9.73;;;8.13;;
9942;SDS011;5010;45.080;7.634;2023-06-04T03:00:13;8.93;;;8.43;;
9942;SDS011;5010;45.080;7.634;2023-06-04T03:02:43;7.95;;;6.03;;
9942;SDS011;5010;45.080;7.634;2023-06-04T03:05:12;7.47;;;7.07;;
9942;SDS011;5010;45.080;7.634;2023-06-04T03:07:40;8.35;;;6.75;;
9942;SDS011;5010;45.080;7.634;2023-06-04T03:10:08;7.60;;;7.20;;
9942;SDS011;5010;45.080;7.634;2023-06-04T03:12:36;9.48;;;8.98;;
9942;SDS011;5010;45.080;7.634;2023-06-04T03:15:03;7.78;;;7.13;;
9942;SDS011;5010;45.080;7.634;2023-06-04T03:17:31;7.65;;;6.18;;
9942;SDS011;5010;45.080;7.634;2023-06-04T03:19:59;9.50;;;9.00;;
9942;SDS011;5010;45.080;7.634;2023-06-04T03:22:28;7.47;;;6.85;;
9942;SDS011;5010;45.080;7.634;2023-06-04T03:24:56;9.25;;;8.75;;
9942;SDS011;5010;45.080;7.634;2023-06-04T03:27:23;7.90;;;7.50;;
9942;SDS011;5010;45.080;7.634;2023-06-04T03:29:50;9.20;;;7.93;;
9942;SDS011;5010;45.080;7.634;2023-06-04T03:32:18;7.28;;;6.88;;
9942;SDS011;5010;45.080;7.634;2023-06-04T03:34:45;7.25;;;6.85;;
9942;SDS011;5010;45.080;7.634;2023-06-04T03:37:13;7.18;;;6.32;;
9942;SDS011;5010;45.080;7.634;2023-06-04T03:39:41;8.70;;;7.65;;
9942;SDS011;5010;45.080;7.634;2023-06-04T03:42:08;7.00;;;6.65;;
9942;SDS011;5010;45.080;7.634;2023-06-04T03:44:35;7.75;;;7.18;;
9942;SDS011;5010;45.080;7.634;2023-06-04T03:47:02;7.75;;;7.38;;
9942;SDS011;5010;45.080;7.634;2023-06-04T03:49:30;7.28;;;6.10;;
9942;SDS011;5010;45.080;7.634;2023-06-04T03:51:57;8.48;;;5.88;;
9942;SDS011;5010;45.080;7.634;2023-06-04T03:54:26;9.15;;;6.45;;
9942;SDS011;5010;45.080;7.634;2023-06-04T03:56:53;6.63;;;5.55;;
9942;SDS011;5010;45.080;7.634;2023-06-04T03:59:20;8.63;;;5.85;;
9942;SDS011;5010;45.080;7.634;2023-06-04T04:01:47;6.57;;;5.57;;
9942;SDS011;5010;45.080;7.634;2023-06-04T04:04:15;6.97;;;6.60;;
9942;SDS011;5010;45.080;7.634;2023-06-04T04:06:42;8.00;;;6.82;;
9942;SDS011;5010;45.080;7.634;2023-06-04T04:09:09;8.10;;;7.50;;
9942;SDS011;5010;45.080;7.634;2023-06-04T04:11:38;6.75;;;5.70;;
9942;SDS011;5010;45.080;7.634;2023-06-04T04:14:05;7.75;;;6.70;;
9942;SDS011;5010;45.080;7.634;2023-06-04T04:16:33;8.23;;;5.93;;
9942;SDS011;5010;45.080;7.634;2023-06-04T04:19:00;8.70;;;6.50;;
9942;SDS011;5010;45.080;7.634;2023-06-04T04:21:27;8.30;;;7.90;;
9942;SDS011;5010;45.080;7.634;2023-06-04T04:23:54;8.80;;;5.97;;
9942;SDS011;5010;45.080;7.634;2023-06-04T04:26:21;7.25;;;6.80;;
9942;SDS011;5010;45.080;7.634;2023-06-04T04:28:52;6.35;;;5.97;;
9942;SDS011;5010;45.080;7.634;2023-06-04T04:31:23;8.35;;;7.93;;
9942;SDS011;5010;45.080;7.634;2023-06-04T04:33:50;7.53;;;6.47;;
9942;SDS011;5010;45.080;7.634;2023-06-04T04:36:17;7.95;;;7.03;;
9942;SDS011;5010;45.080;7.634;2023-06-04T04:38:45;7.65;;;6.18;;
9942;SDS011;5010;45.080;7.634;2023-06-04T04:41:19;10.27;;;6.65;;
9942;SDS011;5010;45.080;7.634;2023-06-04T04:43:47;6.70;;;5.80;;
9942;SDS011;5010;45.080;7.634;2023-06-04T04:46:16;8.57;;;6.07;;
9942;SDS011;5010;45.080;7.634;2023-06-04T04:48:43;6.45;;;5.05;;
9942;SDS011;5010;45.080;7.634;2023-06-04T04:51:10;8.73;;;6.45;;
9942;SDS011;5010;45.080;7.634;2023-06-04T04:53:38;9.77;;;5.70;;
9942;SDS011;5010;45.080;7.634;2023-06-04T04:56:05;9.00;;;6.10;;
9942;SDS011;5010;45.080;7.634;2023-06-04T04:58:32;6.45;;;5.65;;
9942;SDS011;5010;45.080;7.634;2023-06-04T05:00:59;7.55;;;6.30;;
9942;SDS011;5010;45.080;7.634;2023-06-04T05:03:28;7.43;;;6.05;;
9942;SDS011;5010;45.080;7.634;2023-06-04T05:05:55;7.60;;;5.88;;
9942;SDS011;5010;45.080;7.634;2023-06-04T05:08:22;7.57;;;7.18;;
9942;SDS011;5010;45.080;7.634;2023-06-04T05:10:50;7.13;;;6.72;;
9942;SDS011;5010;45.080;7.634;2023-06-04T05:13:17;7.57;;;7.18;;
9942;SDS011;5010;45.080;7.634;2023-06-04T05:15:44;6.47;;;5.75;;
9942;SDS011;5010;45.080;7.634;2023-06-04T05:18:13;6.78;;;6.00;;
9942;SDS011;5010;45.080;7.634;2023-06-04T05:20:43;7.13;;;6.43;;
9942;SDS011;5010;45.080;7.634;2023-06-04T05:23:10;6.40;;;5.75;;
9942;SDS011;5010;45.080;7.634;2023-06-04T05:25:38;6.40;;;5.90;;
9942;SDS011;5010;45.080;7.634;2023-06-04T05:28:05;6.13;;;4.90;;
9942;SDS011;5010;45.080;7.634;2023-06-04T05:30:33;7.30;;;6.90;;
9942;SDS011;5010;45.080;7.634;2023-06-04T05:33:00;7.60;;;7.20;;
9942;SDS011;5010;45.080;7.634;2023-06-04T05:35:27;7.38;;;6.68;;
9942;SDS011;5010;45.080;7.634;2023-06-04T05:37:56;6.35;;;5.78;;
9942;SDS011;5010;45.080;7.634;2023-06-04T05:40:25;7.65;;;6.35;;
9942;SDS011;5010;45.080;7.634;2023-06-04T05:42:53;8.15;;;7.72;;
9942;SDS011;5010;45.080;7.634;2023-06-04T05:45:20;7.15;;;6.38;;
9942;SDS011;5010;45.080;7.634;2023-06-04T05:47:47;5.75;;;5.03;;
9942;SDS011;5010;45.080;7.634;2023-06-04T05:50:14;6.72;;;6.30;;
9942;SDS011;5010;45.080;7.634;2023-06-04T05:52:41;7.32;;;6.93;;
9942;SDS011;5010;45.080;7.634;2023-06-04T05:55:10;6.35;;;6.00;;
9942;SDS011;5010;45.080;7.634;2023-06-04T05:57:37;6.38;;;5.57;;
9942;SDS011;5010;45.080;7.634;2023-06-04T06:00:05;7.22;;;6.50;;
9942;SDS011;5010;45.080;7.634;2023-06-04T06:02:35;6.50;;;5.40;;
9942;SDS011;5010;45.080;7.634;2023-06-04T06:05:04;6.60;;;6.10;;
9942;SDS011;5010;45.080;7.634;2023-06-04T06:07:32;5.93;;;5.65;;
9942;SDS011;5010;45.080;7.634;2023-06-04T06:10:00;14.82;;;6.30;;
9942;SDS011;5010;45.080;7.634;2023-06-04T06:12:29;6.53;;;5.40;;
9942;SDS011;5010;45.080;7.634;2023-06-04T06:14:56;6.80;;;5.60;;
9942;SDS011;5010;45.080;7.634;2023-06-04T06:17:24;6.72;;;6.32;;
9942;SDS011;5010;45.080;7.634;2023-06-04T06:19:51;10.13;;;7.20;;
9942;SDS011;5010;45.080;7.634;2023-06-04T06:22:18;7.05;;;6.72;;
9942;SDS011;5010;45.080;7.634;2023-06-04T06:24:45;7.32;;;5.97;;
9942;SDS011;5010;45.080;7.634;2023-06-04T06:27:13;6.55;;;6.15;;
9942;SDS011;5010;45.080;7.634;2023-06-04T06:29:42;6.82;;;5.45;;
9942;SDS011;5010;45.080;7.634;2023-06-04T06:32:10;8.30;;;7.10;;
9942;SDS011;5010;45.080;7.634;2023-06-04T06:34:37;8.55;;;6.05;;
9942;SDS011;5010;45.080;7.634;2023-06-04T06:37:06;6.18;;;5.57;;
9942;SDS011;5010;45.080;7.634;2023-06-04T06:39:33;6.88;;;5.50;;
9942;SDS011;5010;45.080;7.634;2023-06-04T06:42:00;7.80;;;6.07;;
9942;SDS011;5010;45.080;7.634;2023-06-04T06:44:27;6.05;;;5.10;;
9942;SDS011;5010;45.080;7.634;2023-06-04T06:46:56;6.93;;;5.40;;
9942;SDS011;5010;45.080;7.634;2023-06-04T06:49:23;6.35;;;5.60;;
9942;SDS011;5010;45.080;7.634;2023-06-04T06:51:50;6.45;;;5.72;;
9942;SDS011;5010;45.080;7.634;2023-06-04T06:54:17;7.80;;;7.20;;
9942;SDS011;5010;45.080;7.634;2023-06-04T06:56:46;7.60;;;5.68;;
9942;SDS011;5010;45.080;7.634;2023-06-04T06:59:14;6.65;;;6.00;;
9942;SDS011;5010;45.080;7.634;2023-06-04T07:01:41;6.20;;;5.38;;
9942;SDS011;5010;45.080;7.634;2023-06-04T07:04:10;6.90;;;6.50;;
9942;SDS011;5010;45.080;7.634;2023-06-04T07:06:37;7.10;;;5.78;;
9942;SDS011;5010;45.080;7.634;2023-06-04T07:09:04;12.10;;;7.95;;
9942;SDS011;5010;45.080;7.634;2023-06-04T07:11:32;9.88;;;8.02;;
9942;SDS011;5010;45.080;7.634;2023-06-04T07:13:59;8.18;;;6.93;;
9942;SDS011;5010;45.080;7.634;2023-06-04T07:16:27;8.55;;;6.38;;
9942;SDS011;5010;45.080;7.634;2023-06-04T07:18:55;11.32;;;6.15;;
9942;SDS011;5010;45.080;7.634;2023-06-04T07:21:25;9.32;;;6.32;;
9942;SDS011;5010;45.080;7.634;2023-06-04T07:23:53;7.63;;;6.53;;
9942;SDS011;5010;45.080;7.634;2023-06-04T07:26:20;7.32;;;6.20;;
9942;SDS011;5010;45.080;7.634;2023-06-04T07:28:47;6.80;;;6.10;;
9942;SDS011;5010;45.080;7.634;2023-06-04T07:31:15;6.45;;;5.45;;
9942;SDS011;5010;45.080;7.634;2023-06-04T07:33:42;6.85;;;5.07;;
9942;SDS011;5010;45.080;7.634;2023-06-04T07:36:10;7.50;;;5.43;;
9942;SDS011;5010;45.080;7.634;2023-06-04T07:38:41;6.95;;;6.55;;
9942;SDS011;5010;45.080;7.634;2023-06-04T07:41:08;7.45;;;6.80;;
9942;SDS011;5010;45.080;7.634;2023-06-04T07:43:35;7.43;;;5.57;;
9942;SDS011;5010;45.080;7.634;2023-06-04T07:46:05;6.13;;;5.15;;
9942;SDS011;5010;45.080;7.634;2023-06-04T07:48:34;6.75;;;5.32;;
9942;SDS011;5010;45.080;7.634;2023-06-04T07:51:01;6.80;;;5.50;;
9942;SDS011;5010;45.080;7.634;2023-06-04T07:53:30;8.10;;;6.88;;
9942;SDS011;5010;45.080;7.634;2023-06-04T07:55:59;6.43;;;5.82;;
9942;SDS011;5010;45.080;7.634;2023-06-04T07:58:26;7.85;;;6.47;;
9942;SDS011;5010;45.080;7.634;2023-06-04T08:00:53;6.85;;;5.22;;
9942;SDS011;5010;45.080;7.634;2023-06-04T08:03:21;7.65;;;5.40;;
9942;SDS011;5010;45.080;7.634;2023-06-04T08:05:49;9.25;;;7.93;;
9942;SDS011;5010;45.080;7.634;2023-06-04T08:08:16;17.23;;;12.25;;
9942;SDS011;5010;45.080;7.634;2023-06-04T08:10:44;26.10;;;20.20;;
9942;SDS011;5010;45.080;7.634;2023-06-04T08:13:12;39.38;;;28.77;;
9942;SDS011;5010;45.080;7.634;2023-06-04T08:15:40;57.20;;;38.58;;
9942;SDS011;5010;45.080;7.634;2023-06-04T08:18:07;52.90;;;35.03;;
9942;SDS011;5010;45.080;7.634;2023-06-04T08:20:35;55.33;;;32.78;;
9942;SDS011;5010;45.080;7.634;2023-06-04T08:23:02;75.47;;;40.55;;
9942;SDS011;5010;45.080;7.634;2023-06-04T08:25:29;62.40;;;38.42;;
9942;SDS011;5010;45.080;7.634;2023-06-04T08:27:57;55.13;;;33.20;;
9942;SDS011;5010;45.080;7.634;2023-06-04T08:30:26;46.97;;;33.35;;
9942;SDS011;5010;45.080;7.634;2023-06-04T08:32:54;61.33;;;33.63;;
9942;SDS011;5010;45.080;7.634;2023-06-04T08:35:21;36.80;;;23.90;;
9942;SDS011;5010;45.080;7.634;2023-06-04T08:37:48;38.00;;;22.30;;
9942;SDS011;5010;45.080;7.634;2023-06-04T08:40:16;49.10;;;29.75;;
9942;SDS011;5010;45.080;7.634;2023-06-04T08:42:43;36.65;;;25.30;;
9942;SDS011;5010;45.080;7.634;2023-06-04T08:45:11;44.25;;;23.85;;
9942;SDS011;5010;45.080;7.634;2023-06-04T08:47:41;41.95;;;25.55;;
9942;SDS011;5010;45.080;7.634;2023-06-04T08:50:10;47.33;;;27.25;;
9942;SDS011;5010;45.080;7.634;2023-06-04T08:52:37;57.15;;;29.98;;
9942;SDS011;5010;45.080;7.634;2023-06-04T08:55:06;31.35;;;22.08;;
9942;SDS011;5010;45.080;7.634;2023-06-04T08:57:35;16.52;;;12.25;;
9942;SDS011;5010;45.080;7.634;2023-06-04T09:00:03;13.55;;;10.45;;
9942;SDS011;5010;45.080;7.634;2023-06-04T09:02:33;12.40;;;8.20;;
9942;SDS011;5010;45.080;7.634;2023-06-04T09:05:02;12.50;;;8.65;;
9942;SDS011;5010;45.080;7.634;2023-06-04T09:07:29;15.77;;;10.45;;
9942;SDS011;5010;45.080;7.634;2023-06-04T09:09:57;13.50;;;9.15;;
9942;SDS011;5010;45.080;7.634;2023-06-04T09:12:25;14.65;;;8.88;;
9942;SDS011;5010;45.080;7.634;2023-06-04T09:14:53;11.85;;;8.52;;
9942;SDS011;5010;45.080;7.634;2023-06-04T09:17:21;9.00;;;7.53;;
9942;SDS011;5010;45.080;7.634;2023-06-04T09:19:48;11.00;;;7.82;;
9942;SDS011;5010;45.080;7.634;2023-06-04T09:22:17;8.30;;;6.03;;
9942;SDS011;5010;45.080;7.634;2023-06-04T09:24:45;9.70;;;6.70;;
9942;SDS011;5010;45.080;7.634;2023-06-04T09:27:17;8.57;;;6.78;;
9942;SDS011;5010;45.080;7.634;2023-06-04T09:29:50;7.60;;;7.20;;
9942;SDS011;5010;45.080;7.634;2023-06-04T09:32:21;9.40;;;7.63;;
9942;SDS011;5010;45.080;7.634;2023-06-04T09:34:49;9.88;;;9.38;;
9942;SDS011;5010;45.080;7.634;2023-06-04T09:37:19;9.60;;;7.65;;
9942;SDS011;5010;45.080;7.634;2023-06-04T09:39:52;9.63;;;8.05;;
9942;SDS011;5010;45.080;7.634;2023-06-04T09:42:21;9.52;;;8.40;;
9942;SDS011;5010;45.080;7.634;2023-06-04T09:44:48;8.80;;;6.88;;
9942;SDS011;5010;45.080;7.634;2023-06-04T09:47:15;7.97;;;7.25;;
9942;SDS011;5010;45.080;7.634;2023-06-04T09:49:42;7.53;;;7.13;;
9942;SDS011;5010;45.080;7.634;2023-06-04T09:52:10;8.02;;;6.57;;
9942;SDS011;5010;45.080;7.634;2023-06-04T09:54:39;8.07;;;6.70;;
9942;SDS011;5010;45.080;7.634;2023-06-04T09:57:13;8.15;;;7.78;;
9942;SDS011;5010;45.080;7.634;2023-06-04T09:59:41;7.63;;;6.97;;
9942;SDS011;5010;45.080;7.634;2023-06-04T10:02:10;8.70;;;7.75;;
9942;SDS011;5010;45.080;7.634;2023-06-04T10:04:38;7.53;;;6.25;;
9942;SDS011;5010;45.080;7.634;2023-06-04T10:07:07;7.28;;;6.78;;
9942;SDS011;5010;45.080;7.634;2023-06-04T10:09:36;9.23;;;8.73;;
9942;SDS011;5010;45.080;7.634;2023-06-04T10:12:11;9.80;;;9.13;;
9942;SDS011;5010;45.080;7.634;2023-06-04T10:14:41;14.20;;;12.40;;
9942;SDS011;5010;45.080;7.634;2023-06-04T10:17:08;13.85;;;13.10;;
9942;SDS011;5010;45.080;7.634;2023-06-04T10:19:37;11.20;;;10.65;;
9942;SDS011;5010;45.080;7.634;2023-06-04T10:22:05;14.65;;;13.82;;
9942;SDS011;5010;45.080;7.634;2023-06-04T10:24:32;14.25;;;11.90;;
9942;SDS011;5010;45.080;7.634;2023-06-04T10:26:59;12.40;;;11.80;;
9942;SDS011;5010;45.080;7.634;2023-06-04T10:29:28;13.13;;;10.35;;
9942;SDS011;5010;45.080;7.634;2023-06-04T10:31:56;11.02;;;10.43;;
9942;SDS011;5010;45.080;7.634;2023-06-04T10:34:24;10.70;;;10.10;;
9942;SDS011;5010;45.080;7.634;2023-06-04T10:36:53;9.95;;;9.43;;
9942;SDS011;5010;45.080;7.634;2023-06-04T10:39:26;10.60;;;10.00;;
9942;SDS011;5010;45.080;7.634;2023-06-04T10:41:58;10.95;;;9.95;;
9942;SDS011;5010;45.080;7.634;2023-06-04T10:44:25;14.32;;;13.63;;
9942;SDS011;5010;45.080;7.634;2023-06-04T10:46:54;16.13;;;15.32;;
9942;SDS011;5010;45.080;7.634;2023-06-04T10:49:27;16.83;;;14.30;;
9942;SDS011;5010;45.080;7.634;2023-06-04T10:51:55;17.20;;;15.43;;
9942;SDS011;5010;45.080;7.634;2023-06-04T10:54:28;14.07;;;12.73;;
9942;SDS011;5010;45.080;7.634;2023-06-04T10:56:55;11.30;;;10.70;;
9942;SDS011;5010;45.080;7.634;2023-06-04T10:59:22;11.23;;;10.38;;
9942;SDS011;5010;45.080;7.634;2023-06-04T11:01:50;10.77;;;9.85;;
9942;SDS011;5010;45.080;7.634;2023-06-04T11:04:19;11.07;;;10.48;;
9942;SDS011;5010;45.080;7.634;2023-06-04T11:06:47;12.70;;;8.82;;
9942;SDS011;5010;45.080;7.634;2023-06-04T11:09:14;9.48;;;8.88;;
9942;SDS011;5010;45.080;7.634;2023-06-04T11:11:43;11.80;;;8.75;;
9942;SDS011;5010;45.080;7.634;2023-06-04T11:14:11;11.02;;;8.82;;
9942;SDS011;5010;45.080;7.634;2023-06-04T11:16:38;9.27;;;7.70;;
9942;SDS011;5010;45.080;7.634;2023-06-04T11:19:06;7.95;;;6.90;;
9942;SDS011;5010;45.080;7.634;2023-06-04T11:21:35;9.00;;;7.63;;
9942;SDS011;5010;45.080;7.634;2023-06-04T11:24:03;9.02;;;7.68;;
9942;SDS011;5010;45.080;7.634;2023-06-04T11:26:31;7.63;;;6.40;;
9942;SDS011;5010;45.080;7.634;2023-06-04T11:28:58;8.73;;;6.75;;
9942;SDS011;5010;45.080;7.634;2023-06-04T11:31:26;8.10;;;7.70;;
9942;SDS011;5010;45.080;7.634;2023-06-04T11:33:53;8.57;;;6.07;;
9942;SDS011;5010;45.080;7.634;2023-06-04T11:36:23;7.97;;;6.55;;
9942;SDS011;5010;45.080;7.634;2023-06-04T11:38:56;8.05;;;6.22;;
9942;SDS011;5010;45.080;7.634;2023-06-04T11:41:24;7.22;;;6.40;;
9942;SDS011;5010;45.080;7.634;2023-06-04T11:43:51;7.05;;;5.90;;
9942;SDS011;5010;45.080;7.634;2023-06-04T11:46:18;7.75;;;7.40;;
9942;SDS011;5010;45.080;7.634;2023-06-04T11:48:46;7.22;;;6.82;;
9942;SDS011;5010;45.080;7.634;2023-06-04T11:51:13;8.35;;;6.78;;
9942;SDS011;5010;45.080;7.634;2023-06-04T11:53:40;7.63;;;6.20;;
9942;SDS011;5010;45.080;7.634;2023-06-04T11:56:09;6.20;;;5.93;;
9942;SDS011;5010;45.080;7.634;2023-06-04T11:58:37;8.27;;;6.30;;
9942;SDS011;5010;45.080;7.634;2023-06-04T12:01:05;6.57;;;6.22;;
9942;SDS011;5010;45.080;7.634;2023-06-04T12:03:36;9.48;;;8.98;;
9942;SDS011;5010;45.080;7.634;2023-06-04T12:06:10;6.22;;;5.32;;
9942;SDS011;5010;45.080;7.634;2023-06-04T12:08:44;7.65;;;6.90;;
9942;SDS011;5010;45.080;7.634;2023-06-04T12:11:21;10.10;;;7.47;;
9942;SDS011;5010;45.080;7.634;2023-06-04T12:13:48;10.98;;;7.30;;
9942;SDS011;5010;45.080;7.634;2023-06-04T12:16:16;8.43;;;6.93;;
9942;SDS011;5010;45.080;7.634;2023-06-04T12:18:43;8.07;;;6.20;;
9942;SDS011;5010;45.080;7.634;2023-06-04T12:21:16;6.80;;;6.40;;
9942;SDS011;5010;45.080;7.634;2023-06-04T12:23:44;6.32;;;5.97;;
9942;SDS011;5010;45.080;7.634;2023-06-04T12:26:19;7.45;;;7.05;;
9942;SDS011;5010;45.080;7.634;2023-06-04T12:29:06;7.45;;;6.10;;
9942;SDS011;5010;45.080;7.634;2023-06-04T12:31:35;7.20;;;6.20;;
9942;SDS011;5010;45.080;7.634;2023-06-04T12:34:02;11.15;;;5.65;;
9942;SDS011;5010;45.080;7.634;2023-06-04T12:36:29;6.50;;;5.35;;
9942;SDS011;5010;45.080;7.634;2023-06-04T12:38:59;6.45;;;6.05;;
9942;SDS011;5010;45.080;7.634;2023-06-04T12:41:26;7.57;;;6.53;;
9942;SDS011;5010;45.080;7.634;2023-06-04T12:43:53;7.60;;;6.50;;
9942;SDS011;5010;45.080;7.634;2023-06-04T12:46:22;7.45;;;6.55;;
9942;SDS011;5010;45.080;7.634;2023-06-04T12:48:50;6.90;;;5.88;;
9942;SDS011;5010;45.080;7.634;2023-06-04T12:51:18;6.95;;;4.90;;
9942;SDS011;5010;45.080;7.634;2023-06-04T12:53:45;5.95;;;5.10;;
9942;SDS011;5010;45.080;7.634;2023-06-04T12:56:13;8.95;;;5.35;;
9942;SDS011;5010;45.080;7.634;2023-06-04T12:58:41;6.35;;;5.93;;
9942;SDS011;5010;45.080;7.634;2023-06-04T13:01:08;6.63;;;6.15;;
9942;SDS011;5010;45.080;7.634;2023-06-04T13:03:40;6.20;;;5.00;;
9942;SDS011;5010;45.080;7.634;2023-06-04T13:06:07;7.15;;;5.50;;
9942;SDS011;5010;45.080;7.634;2023-06-04T13:08:34;7.43;;;7.03;;
9942;SDS011;5010;45.080;7.634;2023-06-04T13:11:01;7.88;;;5.72;;
9942;SDS011;5010;45.080;7.634;2023-06-04T13:13:29;6.95;;;6.55;;
9942;SDS011;5010;45.080;7.634;2023-06-04T13:15:56;8.45;;;6.85;;
9942;SDS011;5010;45.080;7.634;2023-06-04T13:18:24;7.22;;;5.50;;
9942;SDS011;5010;45.080;7.634;2023-06-04T13:20:52;8.70;;;8.18;;
9942;SDS011;5010;45.080;7.634;2023-06-04T13:23:19;6.88;;;6.05;;
9942;SDS011;5010;45.080;7.634;2023-06-04T13:25:47;6.32;;;5.63;;
9942;SDS011;5010;45.080;7.634;2023-06-04T13:28:14;6.28;;;4.50;;
9942;SDS011;5010;45.080;7.634;2023-06-04T13:30:42;6.57;;;5.20;;
9942;SDS011;5010;45.080;7.634;2023-06-04T13:33:10;6.35;;;6.00;;
9942;SDS011;5010;45.080;7.634;2023-06-04T13:35:37;7.15;;;6.05;;
9942;SDS011;5010;45.080;7.634;2023-06-04T13:38:06;6.28;;;4.85;;
9942;SDS011;5010;45.080;7.634;2023-06-04T13:40:33;7.50;;;5.93;;
9942;SDS011;5010;45.080;7.634;2023-06-04T13:43:01;6.68;;;5.95;;
9942;SDS011;5010;45.080;7.634;2023-06-04T13:45:28;7.53;;;5.97;;
9942;SDS011;5010;45.080;7.634;2023-06-04T13:47:55;6.85;;;6.20;;
9942;SDS011;5010;45.080;7.634;2023-06-04T13:50:27;5.88;;;4.95;;
9942;SDS011;5010;45.080;7.634;2023-06-04T13:52:54;7.00;;;5.00;;
9942;SDS011;5010;45.080;7.634;2023-06-04T13:55:23;6.82;;;6.15;;
9942;SDS011;5010;45.080;7.634;2023-06-04T13:57:50;6.07;;;5.00;;
9942;SDS011;5010;45.080;7.634;2023-06-04T14:00:17;6.50;;;6.10;;
9942;SDS011;5010;45.080;7.634;2023-06-04T14:02:45;8.20;;;6.32;;
9942;SDS011;5010;45.080;7.634;2023-06-04T14:05:12;6.20;;;5.75;;
9942;SDS011;5010;45.080;7.634;2023-06-04T14:07:40;8.57;;;6.20;;
9942;SDS011;5010;45.080;7.634;2023-06-04T14:10:08;7.18;;;5.82;;
9942;SDS011;5010;45.080;7.634;2023-06-04T14:12:38;8.88;;;6.30;;
9942;SDS011;5010;45.080;7.634;2023-06-04T14:15:06;6.82;;;6.43;;
9942;SDS011;5010;45.080;7.634;2023-06-04T14:17:33;8.32;;;7.80;;
9942;SDS011;5010;45.080;7.634;2023-06-04T14:20:00;7.35;;;6.00;;
9942;SDS011;5010;45.080;7.634;2023-06-04T14:22:32;9.00;;;7.30;;
9942;SDS011;5010;45.080;7.634;2023-06-04T14:25:00;6.80;;;5.53;;
9942;SDS011;5010;45.080;7.634;2023-06-04T14:27:27;9.35;;;8.65;;
9942;SDS011;5010;45.080;7.634;2023-06-04T14:29:55;7.53;;;6.15;;
9942;SDS011;5010;45.080;7.634;2023-06-04T14:32:23;6.15;;;5.55;;
9942;SDS011;5010;45.080;7.634;2023-06-04T14:34:50;6.55;;;5.45;;
9942;SDS011;5010;45.080;7.634;2023-06-04T14:37:18;7.28;;;6.35;;
9942;SDS011;5010;45.080;7.634;2023-06-04T14:39:45;7.78;;;6.75;;
9942;SDS011;5010;45.080;7.634;2023-06-04T14:42:13;6.25;;;5.80;;
9942;SDS011;5010;45.080;7.634;2023-06-04T14:44:40;6.90;;;6.25;;
9942;SDS011;5010;45.080;7.634;2023-06-04T14:47:09;10.25;;;9.60;;
9942;SDS011;5010;45.080;7.634;2023-06-04T14:49:36;9.02;;;7.72;;
9942;SDS011;5010;45.080;7.634;2023-06-04T14:52:03;8.50;;;5.82;;
9942;SDS011;5010;45.080;7.634;2023-06-04T14:54:32;7.75;;;6.80;;
9942;SDS011;5010;45.080;7.634;2023-06-04T14:57:00;7.78;;;6.55;;
9942;SDS011;5010;45.080;7.634;2023-06-04T14:59:28;6.75;;;5.78;;
9942;SDS011;5010;45.080;7.634;2023-06-04T15:01:55;8.43;;;6.82;;
9942;SDS011;5010;45.080;7.634;2023-06-04T15:04:24;8.68;;;6.95;;
9942;SDS011;5010;45.080;7.634;2023-06-04T15:06:51;8.85;;;7.70;;
9942;SDS011;5010;45.080;7.634;2023-06-04T15:09:19;9.40;;;7.13;;
9942;SDS011;5010;45.080;7.634;2023-06-04T15:11:46;7.05;;;6.40;;
9942;SDS011;5010;45.080;7.634;2023-06-04T15:14:13;6.57;;;6.28;;
9942;SDS011;5010;45.080;7.634;2023-06-04T15:16:40;6.95;;;6.60;;
9942;SDS011;5010;45.080;7.634;2023-06-04T15:19:08;7.68;;;6.85;;